createdAt,value
2017-09-08T03:32:02.621Z,83.20
2017-09-08T03:34:30.977Z,82.80
2017-09-08T03:36:58.569Z,82.70
2017-09-08T03:39:26.421Z,90.40
2017-09-08T03:41:54.769Z,89.80
2017-09-08T03:44:22.353Z,89.60
2017-09-08T03:46:50.773Z,89.30
2017-09-08T03:49:18.358Z,89.30
2017-09-08T03:51:45.951Z,83.30
2017-09-08T03:54:14.343Z,82.60
2017-09-08T03:56:41.929Z,82.60
2017-09-08T03:59:09.519Z,83.40
2017-09-08T04:01:37.155Z,90.10
2017-09-08T04:04:04.738Z,85.60
2017-09-08T04:06:32.333Z,85.20
2017-09-08T04:08:59.953Z,88.10
2017-09-08T04:11:27.537Z,91.20
2017-09-08T04:13:55.886Z,90.10
2017-09-08T04:16:23.698Z,90.10
2017-09-08T04:18:51.281Z,88.00
2017-09-08T04:21:18.873Z,86.30
2017-09-08T04:23:46.616Z,84.10
2017-09-08T04:26:14.209Z,80.10
2017-09-08T04:28:42.561Z,80.30
2017-09-08T04:31:10.181Z,80.20
2017-09-08T04:33:37.769Z,88.00
2017-09-08T04:36:05.354Z,88.20
2017-09-08T04:38:32.994Z,87.50
2017-09-08T04:41:00.633Z,82.20
2017-09-08T04:43:28.222Z,88.30
2017-09-08T04:45:55.858Z,84.10
2017-09-08T04:48:23.446Z,82.70
2017-09-08T04:50:51.029Z,90.40
2017-09-08T04:53:19.551Z,84.80
2017-09-08T04:55:47.133Z,84.60
2017-09-08T04:58:14.714Z,87.50
2017-09-08T05:00:43.309Z,85.30
2017-09-08T05:03:11.659Z,89.30
2017-09-08T05:05:39.249Z,89.20
2017-09-08T05:08:07.646Z,85.70
2017-09-08T05:10:35.240Z,85.70
2017-09-08T05:13:02.827Z,82.10
2017-09-08T05:15:31.199Z,86.60
2017-09-08T05:17:58.794Z,86.80
2017-09-08T05:20:26.413Z,81.60
2017-09-08T05:22:54.002Z,80.90
2017-09-08T05:25:21.593Z,85.90
2017-09-08T05:27:49.214Z,81.00
2017-09-08T05:30:17.565Z,78.90
2017-09-08T05:32:45.154Z,78.90
2017-09-08T05:35:12.785Z,81.10
2017-09-08T05:37:40.370Z,83.30
2017-09-08T05:40:07.953Z,81.40
2017-09-08T05:42:35.606Z,79.90
2017-09-08T05:45:03.197Z,83.90
2017-09-08T05:47:31.392Z,79.40
2017-09-08T05:49:59.257Z,81.10
2017-09-08T05:52:26.845Z,81.80
2017-09-08T05:54:54.430Z,78.30
2017-09-08T05:57:22.057Z,79.90
2017-09-08T05:59:50.410Z,79.90
2017-09-08T06:02:17.993Z,79.90
2017-09-08T06:04:46.581Z,78.30
2017-09-08T06:07:14.165Z,78.20
2017-09-08T06:09:41.750Z,78.30
2017-09-08T06:12:09.680Z,78.70
2017-09-08T06:14:37.322Z,77.50
2017-09-08T06:17:05.673Z,78.20
2017-09-08T06:19:34.073Z,79.20
2017-09-08T06:22:02.440Z,77.40
2017-09-08T06:24:30.798Z,78.40
2017-09-08T06:26:58.698Z,78.40
2017-09-08T06:29:26.290Z,80.30
2017-09-08T06:31:53.881Z,79.40
2017-09-08T06:34:21.516Z,77.90
2017-09-08T06:36:49.105Z,77.10
2017-09-08T06:39:16.694Z,78.30
2017-09-08T06:41:44.330Z,78.80
2017-09-08T06:44:11.921Z,80.30
2017-09-08T06:46:40.266Z,77.90
2017-09-08T06:49:07.914Z,77.90
2017-09-08T06:51:35.497Z,79.50
2017-09-08T06:54:03.854Z,79.40
2017-09-08T06:56:31.486Z,79.40
2017-09-08T06:58:59.065Z,79.50
2017-09-08T07:01:26.661Z,79.20
2017-09-08T07:03:55.061Z,76.60
2017-09-08T07:06:22.654Z,76.40
2017-09-08T07:08:51.002Z,77.40
2017-09-08T07:11:18.642Z,77.40
2017-09-08T07:13:46.226Z,77.60
2017-09-08T07:16:13.810Z,76.30
2017-09-08T07:18:41.509Z,77.60
2017-09-08T07:21:09.852Z,77.00
2017-09-08T07:23:37.434Z,77.00
2017-09-08T07:26:05.808Z,73.70
2017-09-08T07:28:33.389Z,73.60
2017-09-08T07:31:01.918Z,74.00
2017-09-08T07:33:29.492Z,74.00
2017-09-08T07:35:57.073Z,72.90
2017-09-08T07:38:24.698Z,74.30
2017-09-08T07:40:52.278Z,73.00
2017-09-08T07:43:19.862Z,72.70
2017-09-08T07:45:48.610Z,72.50
2017-09-08T07:48:16.194Z,72.50
2017-09-08T07:50:44.542Z,71.00
2017-09-08T07:53:12.177Z,71.00
2017-09-08T07:55:39.770Z,71.70
2017-09-08T07:58:07.353Z,71.20
2017-09-08T08:00:35.837Z,71.00
2017-09-08T08:03:03.417Z,71.00
2017-09-08T08:05:30.998Z,72.00
2017-09-08T08:07:58.621Z,69.70
2017-09-08T08:10:26.213Z,71.30
2017-09-08T08:12:53.793Z,70.50
2017-09-08T08:15:21.425Z,74.00
2017-09-08T08:17:49.004Z,71.00
2017-09-08T08:20:16.586Z,70.20
2017-09-08T08:22:44.223Z,69.60
2017-09-08T08:25:11.805Z,68.70
2017-09-08T08:27:39.385Z,69.50
2017-09-08T08:30:07.770Z,71.50
2017-09-08T08:32:36.138Z,71.70
2017-09-08T08:35:03.717Z,71.50
2017-09-08T08:37:31.352Z,70.50
2017-09-08T08:39:59.697Z,69.60
2017-09-08T08:42:27.283Z,69.60
2017-09-08T08:44:55.822Z,69.50
2017-09-08T08:47:23.406Z,69.60
2017-09-08T08:49:50.989Z,67.10
2017-09-08T08:52:18.654Z,69.20
2017-09-08T08:54:47.025Z,68.30
2017-09-08T08:57:15.377Z,68.30
2017-09-08T08:59:43.007Z,68.30
2017-09-08T09:02:10.589Z,67.70
2017-09-08T09:04:38.181Z,66.90
2017-09-08T09:07:06.575Z,67.20
2017-09-08T09:09:34.178Z,67.20
2017-09-08T09:12:02.525Z,67.10
2017-09-08T09:14:30.150Z,67.10
2017-09-08T09:16:58.494Z,66.20
2017-09-08T09:19:26.077Z,66.20
2017-09-08T09:21:53.710Z,67.30
2017-09-08T09:24:21.290Z,69.50
2017-09-08T09:26:48.877Z,68.50
2017-09-08T09:29:17.264Z,66.40
2017-09-08T09:31:44.848Z,66.60
2017-09-08T09:34:12.433Z,66.50
2017-09-08T09:36:40.038Z,67.50
2017-09-08T09:39:07.635Z,66.60
2017-09-08T09:41:35.361Z,67.60
2017-09-08T09:44:02.937Z,66.00
2017-09-08T09:46:30.522Z,65.70
2017-09-08T09:48:58.154Z,65.20
2017-09-08T09:51:25.733Z,65.70
2017-09-08T09:53:53.317Z,65.40
2017-09-08T09:56:21.017Z,65.00
2017-09-08T09:58:48.596Z,64.90
2017-09-08T10:01:16.178Z,64.90
2017-09-08T10:03:43.977Z,64.30
2017-09-08T10:06:12.323Z,65.30
2017-09-08T10:08:39.918Z,65.20
2017-09-08T10:11:08.493Z,62.20
2017-09-08T10:13:36.077Z,62.30
2017-09-08T10:16:03.668Z,61.20
2017-09-08T10:18:31.290Z,59.80
2017-09-08T10:20:58.874Z,61.20
2017-09-08T10:23:26.457Z,61.50
2017-09-08T10:25:54.073Z,61.90
2017-09-08T10:28:21.657Z,61.00
2017-09-08T10:30:49.238Z,61.50
2017-09-08T10:33:16.862Z,61.70
2017-09-08T10:35:44.449Z,60.80
2017-09-08T10:38:12.025Z,60.80
2017-09-08T10:40:39.638Z,60.80
2017-09-08T10:43:07.218Z,60.60
2017-09-08T10:45:34.801Z,62.80
2017-09-08T10:48:02.681Z,62.60
2017-09-08T10:50:31.057Z,63.30
2017-09-08T10:52:59.437Z,63.60
2017-09-08T10:55:28.022Z,65.00
2017-09-08T10:57:55.605Z,64.90
2017-09-08T11:00:23.186Z,66.30
2017-09-08T11:02:50.815Z,65.10
2017-09-08T11:05:18.402Z,63.50
2017-09-08T11:07:45.978Z,63.70
2017-09-08T11:10:13.586Z,64.40
2017-09-08T11:12:41.929Z,62.80
2017-09-08T11:15:09.817Z,62.80
2017-09-08T11:17:38.170Z,64.20
2017-09-08T11:20:05.750Z,64.20
2017-09-08T11:22:34.434Z,64.20
2017-09-08T11:25:02.015Z,64.10
2017-09-08T11:27:29.595Z,61.90
2017-09-08T11:29:57.208Z,62.70
2017-09-08T11:32:31.386Z,62.50
2017-09-08T11:35:04.637Z,62.40
2017-09-08T11:37:32.217Z,63.30
2017-09-08T11:39:59.797Z,63.50
2017-09-08T11:42:27.702Z,63.80
2017-09-08T11:44:56.045Z,61.60
2017-09-08T11:47:23.630Z,61.50
2017-09-08T11:49:52.025Z,61.70
2017-09-08T11:52:19.605Z,61.60
2017-09-08T11:54:47.185Z,61.60
2017-09-08T11:57:15.666Z,62.50
2017-09-08T11:59:43.241Z,62.40
2017-09-08T12:02:10.817Z,62.40
2017-09-08T12:04:39.210Z,61.80
2017-09-08T12:07:07.565Z,62.80
2017-09-08T12:09:35.145Z,62.70
2017-09-08T12:12:03.513Z,62.60
2017-09-08T12:14:31.861Z,62.10
2017-09-08T12:16:59.502Z,62.20
2017-09-08T12:19:27.089Z,61.00
2017-09-08T12:21:54.672Z,60.00
2017-09-08T12:24:23.061Z,60.60
2017-09-08T12:26:50.646Z,60.50
2017-09-08T12:29:18.225Z,59.60
2017-09-08T12:31:45.849Z,58.80
2017-09-08T12:34:13.437Z,59.30
2017-09-08T12:36:41.026Z,60.90
2017-09-08T12:39:08.904Z,59.10
2017-09-08T12:41:36.494Z,59.40
2017-09-08T12:44:04.074Z,59.20
2017-09-08T12:46:31.701Z,62.60
2017-09-08T12:48:59.277Z,63.30
2017-09-08T12:51:26.888Z,62.40
2017-09-08T12:53:54.545Z,58.90
2017-09-08T12:56:22.133Z,60.10
2017-09-08T12:58:50.504Z,59.60
2017-09-08T13:01:18.112Z,60.10
2017-09-08T13:03:46.462Z,61.70
2017-09-08T13:06:14.077Z,62.20
2017-09-08T13:08:41.661Z,61.20
2017-09-08T13:11:10.010Z,61.20
2017-09-08T13:13:37.639Z,61.10
2017-09-08T13:16:05.226Z,62.40
2017-09-08T13:18:32.809Z,60.50
2017-09-08T13:21:01.449Z,60.10
2017-09-08T13:23:29.038Z,60.00
2017-09-08T13:25:57.390Z,59.20
2017-09-08T13:28:24.994Z,58.70
2017-09-08T13:30:52.603Z,58.70
2017-09-08T13:33:20.994Z,57.80
2017-09-08T13:35:48.582Z,57.80
2017-09-08T13:38:16.937Z,58.50
2017-09-08T13:40:44.558Z,58.40
2017-09-08T13:43:12.137Z,58.40
2017-09-08T13:45:39.733Z,58.70
2017-09-08T13:48:08.145Z,58.40
2017-09-08T13:50:35.738Z,58.40
2017-09-08T13:53:03.318Z,58.30
2017-09-08T13:55:30.937Z,59.50
2017-09-08T13:57:58.523Z,59.10
2017-09-08T14:00:26.106Z,59.10
2017-09-08T14:02:54.484Z,61.00
2017-09-08T14:05:22.877Z,60.00
2017-09-08T14:07:50.458Z,59.90
2017-09-08T14:10:18.042Z,58.90
2017-09-08T14:12:45.671Z,59.70
2017-09-08T14:15:13.258Z,60.20
2017-09-08T14:17:41.610Z,60.30
2017-09-08T14:20:09.238Z,60.20
2017-09-08T14:22:37.594Z,59.20
2017-09-08T14:25:05.174Z,59.20
2017-09-08T14:27:32.814Z,59.80
2017-09-08T14:30:00.403Z,60.20
2017-09-08T14:32:27.986Z,60.80
2017-09-08T14:34:55.609Z,60.10
2017-09-08T14:37:23.185Z,59.40
2017-09-08T14:39:50.774Z,59.70
2017-09-08T14:42:18.406Z,60.10
2017-09-08T14:44:45.986Z,59.40
2017-09-08T14:47:13.574Z,59.70
2017-09-08T14:49:41.179Z,59.00
2017-09-08T14:52:08.766Z,60.50
2017-09-08T14:54:36.411Z,60.00
2017-09-08T14:57:03.993Z,59.20
2017-09-08T14:59:31.578Z,59.80
2017-09-08T15:01:59.207Z,60.00
2017-09-08T15:04:26.795Z,59.00
2017-09-08T15:06:54.386Z,59.80
2017-09-08T15:09:22.038Z,61.20
2017-09-08T15:11:50.382Z,60.00
2017-09-08T15:14:17.961Z,60.00
2017-09-08T15:16:46.345Z,59.80
2017-09-08T15:19:14.698Z,59.70
2017-09-08T15:21:42.285Z,59.70
2017-09-08T15:24:10.673Z,59.90
2017-09-08T15:26:38.262Z,59.90
2017-09-08T15:29:05.845Z,61.20
2017-09-08T15:31:33.457Z,60.80
2017-09-08T15:34:01.037Z,60.10
2017-09-08T15:36:28.617Z,60.00
2017-09-08T15:38:56.241Z,60.50
2017-09-08T15:41:23.873Z,61.20
2017-09-08T15:43:52.222Z,60.70
2017-09-08T15:46:19.909Z,60.70
2017-09-08T15:48:48.265Z,60.60
2017-09-08T15:51:15.858Z,60.70
2017-09-08T15:53:43.474Z,60.10
2017-09-08T15:56:11.066Z,60.80
2017-09-08T15:58:39.414Z,59.80
2017-09-08T16:01:07.022Z,59.90
2017-09-08T16:03:34.610Z,63.30
2017-09-08T16:06:02.234Z,60.80
2017-09-08T16:08:29.827Z,62.40
2017-09-08T16:10:57.414Z,62.20
2017-09-08T16:13:25.037Z,61.40
2017-09-08T16:15:52.619Z,61.70
2017-09-08T16:18:20.202Z,61.70
2017-09-08T16:20:48.597Z,61.70
2017-09-08T16:23:16.181Z,61.70
2017-09-08T16:25:43.770Z,62.10
2017-09-08T16:28:11.574Z,63.40
2017-09-08T16:30:39.923Z,61.20
2017-09-08T16:33:07.505Z,61.10
2017-09-08T16:35:36.086Z,64.20
2017-09-08T16:38:04.437Z,64.30
2017-09-08T16:40:32.018Z,64.40
2017-09-08T16:43:00.403Z,63.60
2017-09-08T16:45:28.778Z,63.20
2017-09-08T16:47:57.211Z,63.00
2017-09-08T16:50:24.833Z,63.90
2017-09-08T16:52:52.409Z,64.40
2017-09-08T16:55:20.142Z,66.10
2017-09-08T16:57:48.685Z,63.80
2017-09-08T17:00:16.297Z,63.80
2017-09-08T17:02:43.946Z,65.30
2017-09-08T17:05:12.426Z,65.50
2017-09-08T17:07:40.009Z,65.50
2017-09-08T17:10:07.598Z,65.90
2017-09-08T17:12:35.205Z,66.10
2017-09-08T17:15:03.569Z,68.00
2017-09-08T17:17:31.954Z,68.60
2017-09-08T17:20:00.326Z,67.70
2017-09-08T17:22:28.674Z,70.40
2017-09-08T17:24:56.294Z,70.30
2017-09-08T17:27:23.878Z,72.80
2017-09-08T17:29:51.462Z,70.00
2017-09-08T17:32:19.126Z,70.10
2017-09-08T17:34:46.814Z,70.70
2017-09-08T17:37:14.464Z,70.60
2017-09-08T17:39:42.881Z,69.80
2017-09-08T17:42:10.506Z,69.80
2017-09-08T17:44:38.852Z,71.20
2017-09-08T17:47:06.493Z,71.10
2017-09-08T17:49:34.082Z,74.60
2017-09-08T17:52:02.513Z,71.70
2017-09-08T17:54:30.450Z,71.70
2017-09-08T17:56:58.821Z,75.50
2017-09-08T17:59:27.202Z,69.90
2017-09-08T18:01:55.780Z,71.40
2017-09-08T18:04:24.169Z,71.10
2017-09-08T18:06:51.753Z,71.10
2017-09-08T18:09:19.381Z,69.10
2017-09-08T18:11:47.737Z,71.20
2017-09-08T18:14:15.420Z,71.20
2017-09-08T18:16:43.049Z,72.30
2017-09-08T18:19:10.629Z,69.90
2017-09-08T18:21:38.985Z,74.30
2017-09-08T18:24:06.607Z,74.30
2017-09-08T18:26:34.203Z,70.80
2017-09-08T18:29:02.093Z,74.00
2017-09-08T18:31:29.685Z,70.20
2017-09-08T18:33:57.675Z,70.90
2017-09-08T18:36:25.305Z,71.00
2017-09-08T18:38:52.887Z,76.10
2017-09-08T18:41:20.493Z,71.30
2017-09-08T18:43:49.047Z,72.60
2017-09-08T18:46:16.742Z,72.50
2017-09-08T18:48:45.117Z,75.90
2017-09-08T18:51:13.526Z,72.00
2017-09-08T18:53:41.114Z,72.00
2017-09-08T18:56:08.714Z,71.30
2017-09-08T18:58:37.246Z,71.90
2017-09-08T19:01:04.866Z,71.80
2017-09-08T19:03:32.452Z,73.60
2017-09-08T19:06:00.278Z,76.90
2017-09-08T19:08:28.631Z,74.60
2017-09-08T19:10:56.217Z,74.50
2017-09-08T19:13:24.690Z,75.30
2017-09-08T19:15:53.041Z,73.50
2017-09-08T19:18:20.626Z,73.60
2017-09-08T19:20:49.205Z,72.70
2017-09-08T19:23:17.585Z,72.70
2017-09-08T19:25:45.966Z,70.80
2017-09-08T19:28:14.353Z,74.30
2017-09-08T19:30:41.933Z,74.20
2017-09-08T19:33:09.521Z,73.40
2017-09-08T19:35:37.125Z,77.20
2017-09-08T19:38:04.709Z,73.70
2017-09-08T19:40:32.475Z,72.20
2017-09-08T19:43:00.058Z,74.50
2017-09-08T19:45:27.657Z,72.30
2017-09-08T19:47:56.053Z,76.00
2017-09-08T19:50:23.707Z,76.00
2017-09-08T19:52:52.054Z,80.00
2017-09-08T19:55:19.838Z,80.00
2017-09-08T19:57:48.189Z,80.20
2017-09-08T20:00:15.878Z,80.20
2017-09-08T20:02:44.282Z,75.40
2017-09-08T20:05:11.862Z,75.30
2017-09-08T20:07:39.449Z,77.30
2017-09-08T20:10:07.856Z,76.80
2017-09-08T20:12:36.337Z,78.00
2017-09-08T20:15:03.917Z,78.10
2017-09-08T20:17:31.710Z,75.20
2017-09-08T20:19:59.297Z,77.60
2017-09-08T20:22:27.650Z,81.00
2017-09-08T20:24:55.343Z,81.00
2017-09-08T20:27:22.926Z,80.50
2017-09-08T20:29:50.501Z,80.10
2017-09-08T20:32:18.334Z,73.80
2017-09-08T20:34:46.710Z,76.40
2017-09-08T20:37:14.361Z,76.30
2017-09-08T20:39:42.757Z,76.60
2017-09-08T20:42:10.338Z,76.50
2017-09-08T20:44:37.956Z,77.30
2017-09-08T20:47:06.442Z,77.80
2017-09-08T20:49:34.786Z,77.00
2017-09-08T20:52:02.380Z,77.00
2017-09-08T20:54:30.150Z,78.20
2017-09-08T20:56:57.742Z,75.40
2017-09-08T20:59:25.334Z,76.10
2017-09-08T21:01:53.115Z,78.10
2017-09-08T21:04:21.470Z,75.90
2017-09-08T21:06:49.154Z,75.80
2017-09-08T21:09:17.573Z,75.60
2017-09-08T21:11:45.162Z,75.40
2017-09-08T21:14:12.758Z,74.50
2017-09-08T21:16:41.134Z,73.50
2017-09-08T21:19:08.735Z,73.50
2017-09-08T21:21:36.445Z,73.90
2017-09-08T21:24:04.810Z,73.70
2017-09-08T21:26:33.201Z,76.40
2017-09-08T21:29:01.701Z,72.80
2017-09-08T21:31:29.298Z,72.60
2017-09-08T21:33:56.889Z,72.20
2017-09-08T21:36:25.487Z,74.50
2017-09-08T21:38:53.073Z,74.00
2017-09-08T21:41:20.662Z,72.80
2017-09-08T21:43:48.465Z,73.10
2017-09-08T21:46:16.817Z,72.70
2017-09-08T21:48:44.402Z,72.80
2017-09-08T21:51:12.877Z,72.60
2017-09-08T21:53:41.245Z,73.80
2017-09-08T21:56:09.650Z,73.60
2017-09-08T21:58:37.299Z,72.80
2017-09-08T22:01:04.959Z,72.60
2017-09-08T22:03:33.592Z,75.90
2017-09-08T22:06:01.305Z,75.70
2017-09-08T22:08:29.681Z,73.40
2017-09-08T22:10:58.154Z,74.80
2017-09-08T22:13:26.534Z,73.00
2017-09-08T22:15:54.893Z,74.10
2017-09-08T22:18:22.574Z,73.90
2017-09-08T22:20:50.949Z,72.70
2017-09-08T22:23:19.533Z,73.00
2017-09-08T22:25:47.912Z,74.30
2017-09-08T22:28:16.262Z,73.60
